Time;durP1;ratioP1;P1;durP2;ratioP2;P2;SDS_P1;SDS_P2;PMS_P1;PMS_P2;Temp;Humidity;BMP_temperature;BMP_pressure;BME280_temperature;BME280_humidity;BME280_pressure;Samples;Min_cycle;Max_cycle;Signal;HPM_P1;HPM_P2
2024/02/15 00:02:07;;;;;;;;;15.33;15.33;;;;;-147.14;100.00;58812.66;5045042;28;72444;-48
2024/02/15 00:04:33;;;;;;;;;19.67;16.67;;;;;-147.14;100.00;58812.66;5023672;28;67680;-45
2024/02/15 00:06:59;;;;;;;;;22.33;14.67;;;;;-147.14;100.00;58812.66;5042642;28;45304;-47
2024/02/15 00:09:25;;;;;;;;;17.33;16.67;;;;;-147.14;100.00;58812.66;5049334;28;45316;-45
2024/02/15 00:11:50;;;;;;;;;19.33;14.00;;;;;-147.14;100.00;58812.66;5058903;28;45403;-45
2024/02/15 00:14:16;;;;;;;;;21.67;18.33;;;;;-147.14;100.00;58812.66;5051754;28;60717;-50
2024/02/15 00:16:42;;;;;;;;;26.33;18.67;;;;;-147.14;100.00;58812.66;5043857;28;45151;-44
2024/02/15 00:19:07;;;;;;;;;22.33;22.33;;;;;-147.14;100.00;58812.66;5058893;28;57488;-44
2024/02/15 00:21:32;;;;;;;;;20.33;19.33;;;;;-147.14;100.00;58812.66;5056801;28;72149;-45
2024/02/15 00:23:59;;;;;;;;;23.67;18.33;;;;;-147.14;100.00;58812.66;5059720;28;45363;-49
2024/02/15 00:26:25;;;;;;;;;22.67;21.33;;;;;-147.14;100.00;58812.66;5057623;28;45390;-46
2024/02/15 00:28:50;;;;;;;;;20.00;15.00;;;;;-147.14;100.00;58812.66;5048527;28;45907;-48
2024/02/15 00:31:15;;;;;;;;;19.33;18.33;;;;;-147.14;100.00;58812.66;5044796;28;72186;-50
2024/02/15 00:33:41;;;;;;;;;20.33;19.67;;;;;-147.14;100.00;58812.66;5048156;28;69315;-46
2024/02/15 00:36:06;;;;;;;;;26.33;18.33;;;;;-147.14;100.00;58812.66;5057454;28;70660;-47
2024/02/15 00:38:32;;;;;;;;;21.33;19.00;;;;;-147.14;100.00;58812.66;5052916;28;46908;-49
2024/02/15 00:40:58;;;;;;;;;18.33;13.67;;;;;-147.14;100.00;58812.66;5052522;28;72242;-44
2024/02/15 00:43:24;;;;;;;;;16.00;15.67;;;;;-147.14;100.00;58812.66;5058873;28;45427;-47
2024/02/15 00:45:50;;;;;;;;;25.67;22.00;;;;;-147.14;100.00;58812.66;5045448;28;45450;-47
2024/02/15 00:48:15;;;;;;;;;29.67;26.33;;;;;-147.14;100.00;58812.66;5040642;28;46915;-49
2024/02/15 00:50:40;;;;;;;;;29.50;26.00;;;;;-147.14;100.00;58812.66;5039865;28;71892;-46
2024/02/15 00:53:06;;;;;;;;;39.33;32.33;;;;;-147.14;100.00;58812.66;5040530;28;62248;-47
2024/02/15 00:55:32;;;;;;;;;40.67;32.00;;;;;-147.14;100.00;58812.66;5040853;28;45395;-48
2024/02/15 00:57:57;;;;;;;;;44.33;34.33;;;;;-147.14;100.00;58812.66;5040895;28;47297;-45
2024/02/15 01:00:22;;;;;;;;;44.33;34.33;;;;;-147.14;100.00;58812.66;5048331;28;69525;-47
2024/02/15 01:02:49;;;;;;;;;42.33;34.33;;;;;-147.14;100.00;58812.66;5052155;28;67108;-46
2024/02/15 01:05:15;;;;;;;;;40.33;32.67;;;;;-147.14;100.00;58812.66;5040801;28;45516;-46
2024/02/15 01:07:41;;;;;;;;;41.33;33.00;;;;;-147.14;100.00;58812.66;5040505;28;45380;-49
2024/02/15 01:10:07;;;;;;;;;44.00;32.67;;;;;-147.14;100.00;58812.66;5041788;28;45546;-47
2024/02/15 01:12:33;;;;;;;;;35.33;32.00;;;;;-147.14;100.00;58812.66;5058920;28;45395;-49
2024/02/15 01:14:58;;;;;;;;;37.00;30.00;;;;;-147.14;100.00;58812.66;5045973;28;45435;-48
2024/02/15 01:17:23;;;;;;;;;46.67;35.33;;;;;-147.14;100.00;58812.66;5040402;28;46243;-49
2024/02/15 01:19:49;;;;;;;;;45.00;33.67;;;;;-147.14;100.00;58812.66;5040474;28;54568;-47
2024/02/15 01:22:14;;;;;;;;;42.00;33.00;;;;;-147.14;100.00;58812.66;5039490;28;69435;-49
2024/02/15 01:24:39;;;;;;;;;34.67;31.00;;;;;-147.14;100.00;58812.66;5039957;28;65538;-47
2024/02/15 01:27:07;;;;;;;;;38.67;32.67;;;;;-147.14;100.00;58812.66;5040461;28;46052;-47
2024/02/15 01:29:32;;;;;;;;;42.00;35.67;;;;;-147.14;100.00;58812.66;5052662;28;45360;-47
2024/02/15 01:31:57;;;;;;;;;42.33;33.00;;;;;-147.14;100.00;58812.66;5059485;28;45377;-46
2024/02/15 01:34:23;;;;;;;;;39.33;33.33;;;;;-147.14;100.00;58812.66;5056724;28;69202;-44
2024/02/15 01:36:50;;;;;;;;;32.33;30.33;;;;;-147.14;100.00;58812.66;5050788;28;63632;-50
2024/02/15 01:39:15;;;;;;;;;39.00;32.00;;;;;-147.14;100.00;58812.66;5052348;28;45455;-47
2024/02/15 01:41:40;;;;;;;;;44.33;35.00;;;;;-147.14;100.00;58812.66;5058779;28;45410;-46
2024/02/15 01:44:06;;;;;;;;;36.67;30.67;;;;;-147.14;100.00;58812.66;5027557;28;69195;-46
2024/02/15 01:46:32;;;;;;;;;39.67;32.67;;;;;-147.14;100.00;58812.66;5041887;28;46168;-47
2024/02/15 01:48:57;;;;;;;;;32.67;29.67;;;;;-147.14;100.00;58812.66;5059406;28;45497;-46
2024/02/15 01:51:24;;;;;;;;;35.67;32.00;;;;;-147.14;100.00;58812.66;5058445;28;45451;-46
2024/02/15 01:53:49;;;;;;;;;33.67;31.67;;;;;-147.14;100.00;58812.66;5039410;28;69673;-49
2024/02/15 01:56:17;;;;;;;;;34.00;30.33;;;;;-147.14;100.00;58812.66;5038351;28;73689;-45
2024/02/15 01:58:43;;;;;;;;;35.33;28.67;;;;;-147.14;100.00;58812.66;5039484;28;45320;-48
2024/02/15 02:01:08;;;;;;;;;29.00;26.67;;;;;-147.14;100.00;58812.66;5039434;28;45512;-48
2024/02/15 02:03:34;;;;;;;;;36.00;30.67;;;;;-147.14;100.00;58812.66;5040216;28;45284;-50
2024/02/15 02:06:00;;;;;;;;;26.00;25.33;;;;;-147.14;100.00;58812.66;5039790;28;46127;-49
2024/02/15 02:08:25;;;;;;;;;27.33;24.67;;;;;-147.14;100.00;58812.66;5039375;28;45419;-49
2024/02/15 02:10:52;;;;;;;;;27.67;22.67;;;;;-147.14;100.00;58812.66;5046078;28;51272;-46
2024/02/15 02:13:17;;;;;;;;;29.00;24.00;;;;;-147.14;100.00;58812.66;5056130;28;66960;-46
2024/02/15 02:15:42;;;;;;;;;27.67;23.67;;;;;-147.14;100.00;58812.66;5039673;28;46302;-49
2024/02/15 02:18:09;;;;;;;;;24.00;21.00;;;;;-147.14;100.00;58812.66;5038504;28;73027;-45
2024/02/15 02:20:35;;;;;;;;;20.67;19.67;;;;;-147.14;100.00;58812.66;5046819;28;45316;-46
2024/02/15 02:23:14;;;;;;;;;25.00;20.33;;;;;-147.14;100.00;58812.66;5038351;28;45437;-46
2024/02/15 02:25:42;;;;;;;;;12.00;10.33;;;;;-147.14;100.00;58812.66;5022109;28;46391;-49
2024/02/15 02:28:08;;;;;;;;;20.33;20.00;;;;;-147.14;100.00;58812.66;5053231;28;45368;-48
2024/02/15 02:30:34;;;;;;;;;13.33;13.33;;;;;-147.14;100.00;58812.66;5057224;28;45404;-48
2024/02/15 02:33:00;;;;;;;;;21.33;20.00;;;;;-147.14;100.00;58812.66;5056938;28;45372;-48
2024/02/15 02:35:26;;;;;;;;;21.67;17.67;;;;;-147.14;100.00;58812.66;5057622;28;46302;-45
2024/02/15 02:37:55;;;;;;;;;19.00;17.67;;;;;-147.14;100.00;58812.66;5054041;28;45245;-48
2024/02/15 02:40:20;;;;;;;;;19.00;17.33;;;;;-147.14;100.00;58812.66;5056371;28;45355;-46
2024/02/15 02:42:52;;;;;;;;;21.00;13.33;;;;;-147.14;100.00;58812.66;5055022;28;45423;-48
2024/02/15 02:45:19;;;;;;;;;18.67;11.00;;;;;-147.14;100.00;58812.66;5047361;28;45498;-46
2024/02/15 02:47:46;;;;;;;;;19.00;15.33;;;;;-147.14;100.00;58812.66;5042941;28;45401;-49
2024/02/15 02:50:12;;;;;;;;;14.33;11.67;;;;;-147.14;100.00;58812.66;5057143;28;45378;-48
2024/02/15 02:52:39;;;;;;;;;13.00;13.00;;;;;-147.14;100.00;58812.66;5042799;28;45326;-50
2024/02/15 02:55:07;;;;;;;;;13.00;11.00;;;;;-147.14;100.00;58812.66;5057890;28;46169;-47
2024/02/15 02:57:32;;;;;;;;;19.33;12.33;;;;;-147.14;100.00;58812.66;5052506;28;45281;-49
2024/02/15 02:59:57;;;;;;;;;13.33;11.33;;;;;-147.14;100.00;58812.66;5044900;28;67866;-48
2024/02/15 03:02:22;;;;;;;;;15.00;13.33;;;;;-147.14;100.00;58812.66;5054379;28;64331;-46
2024/02/15 03:04:48;;;;;;;;;18.67;15.00;;;;;-147.14;100.00;58812.66;5047713;28;74125;-49
2024/02/15 03:07:16;;;;;;;;;15.67;12.67;;;;;-147.14;100.00;58812.66;5052399;28;67423;-48
2024/02/15 03:09:41;;;;;;;;;12.67;10.00;;;;;-147.14;100.00;58812.66;5043603;28;45607;-47
2024/02/15 03:12:07;;;;;;;;;12.33;9.00;;;;;-147.14;100.00;58812.66;5043485;28;45928;-46
2024/02/15 03:14:35;;;;;;;;;12.00;9.00;;;;;-147.14;100.00;58812.66;5042129;28;45362;-49
2024/02/15 03:17:03;;;;;;;;;9.67;9.67;;;;;-147.14;100.00;58812.66;5057917;28;45349;-50
2024/02/15 03:19:30;;;;;;;;;12.67;10.67;;;;;-147.14;100.00;58812.66;5058124;28;45518;-46
2024/02/15 03:21:56;;;;;;;;;14.33;10.67;;;;;-147.14;100.00;58812.66;5056144;28;45681;-48
2024/02/15 03:24:21;;;;;;;;;18.67;13.33;;;;;-147.14;100.00;58812.66;5048842;28;46903;-46
2024/02/15 03:26:46;;;;;;;;;12.33;12.33;;;;;-147.14;100.00;58812.66;5024921;28;45367;-47
2024/02/15 03:29:12;;;;;;;;;14.33;13.00;;;;;-147.14;100.00;58812.66;5051617;28;69465;-47
2024/02/15 03:31:37;;;;;;;;;12.00;12.00;;;;;-147.14;100.00;58812.66;5046603;28;45321;-49
2024/02/15 03:34:03;;;;;;;;;16.00;13.67;;;;;-147.14;100.00;58812.66;5058739;28;45991;-47
2024/02/15 03:36:29;;;;;;;;;17.33;14.00;;;;;-147.14;100.00;58812.66;5056136;28;45263;-48
2024/02/15 03:38:55;;;;;;;;;19.67;17.00;;;;;-147.14;100.00;58812.66;5059565;28;45535;-49
2024/02/15 03:41:20;;;;;;;;;16.67;16.67;;;;;-147.14;100.00;58812.66;5057534;28;45425;-49
2024/02/15 03:43:47;;;;;;;;;24.33;17.67;;;;;-147.14;100.00;58812.66;5059526;28;46361;-44
2024/02/15 03:46:13;;;;;;;;;21.33;18.67;;;;;-147.14;100.00;58812.66;5043855;28;45762;-45
2024/02/15 03:48:38;;;;;;;;;22.67;17.33;;;;;-147.14;100.00;58812.66;5042923;28;45351;-48
2024/02/15 03:51:05;;;;;;;;;21.33;16.67;;;;;-147.14;100.00;58812.66;5054952;28;45644;-46
2024/02/15 03:53:33;;;;;;;;;20.33;17.33;;;;;-147.14;100.00;58812.66;5035623;28;45404;-49
2024/02/15 03:55:58;;;;;;;;;20.67;16.00;;;;;-147.14;100.00;58812.66;5043795;28;45282;-49
2024/02/15 03:58:23;;;;;;;;;22.33;21.00;;;;;-147.14;100.00;58812.66;5041092;28;68912;-49
2024/02/15 04:00:49;;;;;;;;;15.33;14.00;;;;;-147.14;100.00;58812.66;5053783;28;70553;-46
2024/02/15 04:03:14;;;;;;;;;19.00;19.00;;;;;-147.14;100.00;58812.66;5057827;28;70080;-48
2024/02/15 04:05:39;;;;;;;;;21.67;20.33;;;;;-147.14;100.00;58812.66;5039880;28;45288;-47
2024/02/15 04:08:05;;;;;;;;;20.33;20.00;;;;;-147.14;100.00;58812.66;5050334;28;45417;-49
2024/02/15 04:10:30;;;;;;;;;16.67;15.67;;;;;-147.14;100.00;58812.66;5043319;28;45416;-47
2024/02/15 04:12:57;;;;;;;;;21.67;16.67;;;;;-147.14;100.00;58812.66;5041998;28;75576;-47
2024/02/15 04:15:23;;;;;;;;;27.67;23.00;;;;;-147.14;100.00;58812.66;5046562;28;45253;-46
2024/02/15 04:17:53;;;;;;;;;26.00;21.67;;;;;-147.14;100.00;58812.66;5048840;28;45474;-46
2024/02/15 04:20:18;;;;;;;;;26.00;24.00;;;;;-147.14;100.00;58812.66;5054210;28;45359;-47
2024/02/15 04:22:44;;;;;;;;;29.33;23.33;;;;;-147.14;100.00;58812.66;5042440;28;46201;-46
2024/02/15 04:25:16;;;;;;;;;27.67;25.33;;;;;-147.14;100.00;58812.66;5043168;28;46400;-48
2024/02/15 04:27:41;;;;;;;;;21.33;20.00;;;;;-147.14;100.00;58812.66;5042513;28;45268;-47
2024/02/15 04:30:07;;;;;;;;;24.33;21.00;;;;;-147.14;100.00;58812.66;5056412;28;70154;-44
2024/02/15 04:32:33;;;;;;;;;22.67;17.33;;;;;-147.14;100.00;58812.66;5042815;28;45957;-46
2024/02/15 04:35:00;;;;;;;;;12.33;12.00;;;;;-147.14;100.00;58812.66;5056485;28;45407;-50
2024/02/15 04:37:27;;;;;;;;;12.33;12.00;;;;;-147.14;100.00;58812.66;5059204;28;45435;-46
2024/02/15 04:39:52;;;;;;;;;8.33;8.33;;;;;-147.14;100.00;58812.66;5057050;28;45454;-44
2024/02/15 04:42:18;;;;;;;;;12.33;12.00;;;;;-147.14;100.00;58812.66;5057046;28;56785;-48
2024/02/15 04:44:43;;;;;;;;;9.67;9.00;;;;;-147.14;100.00;58812.66;5043297;28;45238;-47
2024/02/15 04:47:09;;;;;;;;;9.00;9.00;;;;;-147.14;100.00;58812.66;5041039;28;45896;-47
2024/02/15 04:49:37;;;;;;;;;9.33;9.00;;;;;-147.14;100.00;58812.66;5040349;28;67750;-47
2024/02/15 04:52:03;;;;;;;;;6.00;6.00;;;;;-147.14;100.00;58812.66;5040961;28;46998;-46
2024/02/15 04:54:29;;;;;;;;;9.67;7.67;;;;;-147.14;100.00;58812.66;5055241;28;45338;-45
2024/02/15 04:56:56;;;;;;;;;6.33;5.33;;;;;-147.14;100.00;58812.66;5060458;28;45291;-45
2024/02/15 04:59:25;;;;;;;;;8.33;7.00;;;;;-147.14;100.00;58812.66;5055048;28;45352;-45
2024/02/15 05:01:51;;;;;;;;;5.67;5.67;;;;;-147.14;100.00;58812.66;5047787;28;46192;-45
2024/02/15 05:04:17;;;;;;;;;7.67;6.67;;;;;-147.14;100.00;58812.66;5028613;28;45368;-45
2024/02/15 05:06:44;;;;;;;;;6.00;6.00;;;;;-147.14;100.00;58812.66;5047748;28;45419;-47
2024/02/15 05:09:10;;;;;;;;;7.67;6.00;;;;;-147.14;100.00;58812.66;5040720;28;45265;-47
2024/02/15 05:11:46;;;;;;;;;5.00;5.00;;;;;-147.14;100.00;58812.66;5040444;28;45266;-48
2024/02/15 05:14:11;;;;;;;;;7.67;5.00;;;;;-147.14;100.00;58812.66;5048156;28;45225;-46
2024/02/15 05:16:42;;;;;;;;;7.67;6.00;;;;;-147.14;100.00;58812.66;5046224;28;45767;-45
2024/02/15 05:19:08;;;;;;;;;5.33;5.00;;;;;-147.14;100.00;58812.66;5040211;28;45744;-47
2024/02/15 05:21:34;;;;;;;;;4.00;4.00;;;;;-147.14;100.00;58812.66;5040546;28;46344;-48
2024/02/15 05:23:59;;;;;;;;;6.33;6.33;;;;;-147.14;100.00;58812.66;5039719;28;69905;-48
2024/02/15 05:26:24;;;;;;;;;4.00;4.00;;;;;-147.14;100.00;58812.66;5055013;28;66436;-49
2024/02/15 05:28:50;;;;;;;;;7.00;3.67;;;;;-147.14;100.00;58812.66;5058611;28;54847;-49
2024/02/15 05:31:17;;;;;;;;;5.67;5.67;;;;;-147.14;100.00;58812.66;5057417;28;46183;-48
2024/02/15 05:33:53;;;;;;;;;9.00;6.00;;;;;-147.14;100.00;58812.66;5059192;28;45332;-47
2024/02/15 05:36:20;;;;;;;;;9.33;6.33;;;;;-147.14;100.00;58812.66;5057132;28;45415;-48
2024/02/15 05:38:47;;;;;;;;;7.00;6.00;;;;;-147.14;100.00;58812.66;5058090;28;45402;-47
2024/02/15 05:41:12;;;;;;;;;6.00;5.33;;;;;-147.14;100.00;58812.66;5056275;28;47061;-46
2024/02/15 05:43:41;;;;;;;;;8.00;7.00;;;;;-147.14;100.00;58812.66;5057866;28;45358;-48
2024/02/15 05:46:07;;;;;;;;;9.00;7.00;;;;;-147.14;100.00;58812.66;5042506;28;45242;-45
2024/02/15 05:48:36;;;;;;;;;6.33;5.67;;;;;-147.14;100.00;58812.66;5040037;28;45375;-48
2024/02/15 05:51:05;;;;;;;;;7.00;6.00;;;;;-147.14;100.00;58812.66;5056168;28;46185;-47
2024/02/15 05:53:30;;;;;;;;;5.00;5.00;;;;;-147.14;100.00;58812.66;5051509;28;45280;-50
2024/02/15 05:55:57;;;;;;;;;8.33;6.67;;;;;-147.14;100.00;58812.66;5040247;28;45431;-50
2024/02/15 05:58:23;;;;;;;;;5.67;5.67;;;;;-147.14;100.00;58812.66;5049876;28;45424;-48
2024/02/15 06:00:49;;;;;;;;;10.00;7.00;;;;;-147.14;100.00;58812.66;5045241;28;47161;-48
2024/02/15 06:03:16;;;;;;;;;8.67;7.00;;;;;-147.14;100.00;58812.66;5039012;28;45530;-48
2024/02/15 06:05:41;;;;;;;;;8.00;6.67;;;;;-147.14;100.00;58812.66;5053254;28;45707;-45
2024/02/15 06:08:07;;;;;;;;;11.00;8.00;;;;;-147.14;100.00;58812.66;5039389;28;45442;-46
2024/02/15 06:10:32;;;;;;;;;7.00;6.33;;;;;-147.14;100.00;58812.66;5044473;28;46234;-48
2024/02/15 06:13:01;;;;;;;;;8.00;7.00;;;;;-147.14;100.00;58812.66;5057415;28;45362;-47
2024/02/15 06:15:26;;;;;;;;;4.67;4.67;;;;;-147.14;100.00;58812.66;5040469;28;45668;-47
2024/02/15 06:17:52;;;;;;;;;5.33;5.33;;;;;-147.14;100.00;58812.66;5039997;28;45313;-48
2024/02/15 06:20:17;;;;;;;;;10.00;7.00;;;;;-147.14;100.00;58812.66;5039124;28;45440;-48
2024/02/15 06:22:47;;;;;;;;;6.33;6.33;;;;;-147.14;100.00;58812.66;5024039;28;45225;-45
2024/02/15 06:25:13;;;;;;;;;9.67;6.67;;;;;-147.14;100.00;58812.66;5039910;28;45294;-46
2024/02/15 06:27:42;;;;;;;;;6.00;6.00;;;;;-147.14;100.00;58812.66;5039164;28;45697;-45
2024/02/15 06:41:09;;;;;;;;;6.67;6.00;;;;;-147.14;100.00;58812.66;5038851;28;45855;-46
2024/02/15 06:43:35;;;;;;;;;6.00;5.00;;;;;-147.14;100.00;58812.66;5057257;28;45292;-46
2024/02/15 06:46:01;;;;;;;;;7.33;5.33;;;;;-147.14;100.00;58812.66;5042596;28;45408;-44
2024/02/15 06:48:26;;;;;;;;;5.00;5.00;;;;;-147.14;100.00;58812.66;5039373;28;45876;-49
2024/02/15 06:50:52;;;;;;;;;9.33;6.00;;;;;-147.14;100.00;58812.66;5039946;28;46106;-49
2024/02/15 06:53:20;;;;;;;;;10.00;6.67;;;;;-147.14;100.00;58812.66;5034817;28;45344;-49
2024/02/15 06:55:46;;;;;;;;;5.00;5.00;;;;;-147.14;100.00;58812.66;5040195;28;45272;-46
2024/02/15 06:58:13;;;;;;;;;6.33;6.33;;;;;-147.14;100.00;58812.66;5038933;28;45367;-47
2024/02/15 07:00:40;;;;;;;;;6.67;5.00;;;;;-147.14;100.00;58812.66;5047992;28;46346;-48
2024/02/15 07:03:07;;;;;;;;;6.00;6.00;;;;;-147.14;100.00;58812.66;5039410;28;45507;-48
2024/02/15 07:05:33;;;;;;;;;5.00;5.00;;;;;-147.14;100.00;58812.66;5039755;28;45308;-45
2024/02/15 07:07:59;;;;;;;;;8.33;7.00;;;;;-147.14;100.00;58812.66;5039471;28;45593;-45
2024/02/15 07:10:24;;;;;;;;;7.00;6.67;;;;;-147.14;100.00;58812.66;5039227;28;47075;-47
2024/02/15 07:12:49;;;;;;;;;5.67;5.33;;;;;-147.14;100.00;58812.66;5048140;28;45419;-45
2024/02/15 07:15:16;;;;;;;;;9.00;7.00;;;;;-147.14;100.00;58812.66;5040752;28;45499;-48
2024/02/15 07:17:42;;;;;;;;;7.67;5.33;;;;;-147.14;100.00;58812.66;5039366;28;45486;-48
2024/02/15 07:20:10;;;;;;;;;5.33;5.33;;;;;-147.14;100.00;58812.66;5040714;28;72225;-46
2024/02/15 07:22:37;;;;;;;;;10.67;8.00;;;;;-147.14;100.00;58812.66;5047260;28;45408;-49
2024/02/15 07:25:03;;;;;;;;;9.00;8.00;;;;;-147.14;100.00;58812.66;5041986;28;45323;-48
2024/02/15 07:27:28;;;;;;;;;7.67;6.33;;;;;-147.14;100.00;58812.66;5057481;28;45487;-48
2024/02/15 07:29:54;;;;;;;;;7.00;6.33;;;;;-147.14;100.00;58812.66;5054156;28;64940;-48
2024/02/15 07:32:19;;;;;;;;;11.00;8.00;;;;;-147.14;100.00;58812.66;5055613;28;45526;-49
2024/02/15 07:34:47;;;;;;;;;5.33;5.33;;;;;-147.14;100.00;58812.66;5055030;28;45447;-47
2024/02/15 07:37:15;;;;;;;;;9.00;8.00;;;;;-147.14;100.00;58812.66;5055976;28;45398;-45
2024/02/15 07:39:41;;;;;;;;;7.67;7.67;;;;;-147.14;100.00;58812.66;5044681;28;47009;-49
2024/02/15 07:42:08;;;;;;;;;9.33;7.33;;;;;-147.14;100.00;58812.66;5056480;28;45819;-46
2024/02/15 07:44:36;;;;;;;;;8.67;6.33;;;;;-147.14;100.00;58812.66;5040786;28;45359;-45
2024/02/15 07:47:02;;;;;;;;;8.67;8.00;;;;;-147.14;100.00;58812.66;5039621;28;45698;-50
2024/02/15 07:49:27;;;;;;;;;11.00;8.00;;;;;-147.14;100.00;58812.66;5053137;28;45325;-49
2024/02/15 07:51:52;;;;;;;;;10.33;10.00;;;;;-147.14;100.00;58812.66;5057949;28;45610;-46
2024/02/15 07:54:20;;;;;;;;;11.00;9.00;;;;;-147.14;100.00;58812.66;5056622;28;45892;-47
2024/02/15 07:56:48;;;;;;;;;7.67;7.67;;;;;-147.14;100.00;58812.66;5032639;28;45349;-45
2024/02/15 07:59:14;;;;;;;;;10.00;6.00;;;;;-147.14;100.00;58812.66;5042802;28;46372;-48
2024/02/15 08:01:43;;;;;;;;;9.00;9.00;;;;;-147.14;100.00;58812.66;5049740;28;45310;-49
2024/02/15 08:04:08;;;;;;;;;10.00;8.67;;;;;-147.14;100.00;58812.66;5042768;28;45489;-46
2024/02/15 08:06:36;;;;;;;;;12.00;10.00;;;;;-147.14;100.00;58812.66;5042184;28;45528;-48
2024/02/15 08:09:04;;;;;;;;;8.00;8.00;;;;;-147.14;100.00;58812.66;5040961;28;46355;-48
2024/02/15 08:11:30;;;;;;;;;12.00;7.00;;;;;-147.14;100.00;58812.66;5048325;28;45306;-48
2024/02/15 08:13:58;;;;;;;;;13.67;9.33;;;;;-147.14;100.00;58812.66;5042787;28;45501;-50
2024/02/15 08:16:24;;;;;;;;;11.67;10.00;;;;;-147.14;100.00;58812.66;5054171;28;45440;-49
2024/02/15 08:18:52;;;;;;;;;7.67;7.67;;;;;-147.14;100.00;58812.66;5029418;28;46281;-50
2024/02/15 08:21:17;;;;;;;;;8.67;7.67;;;;;-147.14;100.00;58812.66;5030591;28;45375;-46
2024/02/15 08:23:43;;;;;;;;;9.33;7.00;;;;;-147.14;100.00;58812.66;5041895;28;45343;-45
2024/02/15 08:26:10;;;;;;;;;9.00;9.00;;;;;-147.14;100.00;58812.66;5028809;28;45300;-48
2024/02/15 08:28:36;;;;;;;;;8.33;8.00;;;;;-147.14;100.00;58812.66;5059401;28;46401;-44
2024/02/15 08:31:02;;;;;;;;;9.33;9.00;;;;;-147.14;100.00;58812.66;5059336;28;45602;-48
2024/02/15 08:33:28;;;;;;;;;10.67;8.33;;;;;-147.14;100.00;58812.66;5041320;28;45419;-46
2024/02/15 08:35:54;;;;;;;;;11.00;9.33;;;;;-147.14;100.00;58812.66;5059425;28;45420;-48
2024/02/15 08:38:21;;;;;;;;;10.67;9.00;;;;;-147.14;100.00;58812.66;5058491;28;46100;-49
2024/02/15 08:40:47;;;;;;;;;11.00;9.33;;;;;-147.14;100.00;58812.66;5040869;28;45408;-48
2024/02/15 08:43:13;;;;;;;;;11.00;7.33;;;;;-147.14;100.00;58812.66;5058019;28;45265;-48
2024/02/15 08:45:39;;;;;;;;;12.00;11.67;;;;;-147.14;100.00;58812.66;5046227;28;45693;-49
2024/02/15 08:48:04;;;;;;;;;16.33;14.67;;;;;-147.14;100.00;58812.66;5040994;28;45543;-48
2024/02/15 08:50:30;;;;;;;;;11.67;11.00;;;;;-147.14;100.00;58812.66;5041190;28;45410;-46
2024/02/15 08:52:56;;;;;;;;;3.33;0.00;;;;;-147.14;100.00;58812.66;5042057;28;45483;-49
2024/02/15 08:55:26;;;;;;;;;11.33;10.00;;;;;-147.14;100.00;58812.66;5035950;28;46029;-46
2024/02/15 08:57:52;;;;;;;;;11.00;10.00;;;;;-147.14;100.00;58812.66;5038195;28;47366;-45
2024/02/15 09:00:17;;;;;;;;;13.33;10.00;;;;;-147.14;100.00;58812.66;5041340;28;45289;-46
2024/02/15 09:02:45;;;;;;;;;13.67;12.00;;;;;-147.14;100.00;58812.66;5040915;28;45569;-45
2024/02/15 09:05:14;;;;;;;;;15.33;11.67;;;;;-147.14;100.00;58812.66;5053143;28;45472;-45
2024/02/15 09:07:43;;;;;;;;;10.67;10.67;;;;;-147.14;100.00;58812.66;5041383;28;45304;-46
2024/02/15 09:10:11;;;;;;;;;12.00;11.00;;;;;-147.14;100.00;58812.66;5041230;28;45394;-45
2024/02/15 09:12:39;;;;;;;;;16.00;11.33;;;;;-147.14;100.00;58812.66;5048480;28;45281;-47
2024/02/15 09:15:08;;;;;;;;;12.00;9.67;;;;;-147.14;100.00;58812.66;5039117;28;45329;-47
2024/02/15 09:17:39;;;;;;;;;15.00;13.33;;;;;-147.14;100.00;58812.66;5042562;28;48999;-45
2024/02/15 09:20:14;;;;;;;;;8.00;6.67;;;;;-147.14;100.00;58812.66;5044651;28;45533;-46
2024/02/15 09:23:04;;;;;;;;;10.00;8.67;;;;;-147.14;100.00;58812.66;5041244;28;45360;-50
2024/02/15 09:25:31;;;;;;;;;11.00;11.00;;;;;-147.14;100.00;58812.66;5058159;28;45427;-45
2024/02/15 09:27:56;;;;;;;;;11.00;10.33;;;;;-147.14;100.00;58812.66;5057916;28;46171;-46
2024/02/15 09:30:24;;;;;;;;;10.00;10.00;;;;;-147.14;100.00;58812.66;5039536;28;72017;-45
2024/02/15 09:32:50;;;;;;;;;11.67;11.00;;;;;-147.14;100.00;58812.66;5053474;28;45361;-45
2024/02/15 09:35:15;;;;;;;;;12.67;10.33;;;;;-147.14;100.00;58812.66;5059076;28;45336;-45
2024/02/15 09:37:50;;;;;;;;;10.67;10.00;;;;;-147.14;100.00;58812.66;5056499;28;58525;-45
2024/02/15 09:40:17;;;;;;;;;11.00;11.00;;;;;-147.14;100.00;58812.66;5021947;28;45719;-46
2024/02/15 09:42:46;;;;;;;;;10.33;9.33;;;;;-147.14;100.00;58812.66;5040416;28;45706;-47
2024/02/15 09:45:14;;;;;;;;;6.67;6.33;;;;;-147.14;100.00;58812.66;5022710;28;45547;-46
2024/02/15 09:47:40;;;;;;;;;10.33;7.67;;;;;-147.14;100.00;58812.66;5034928;28;47120;-48
2024/02/15 09:50:07;;;;;;;;;7.67;6.00;;;;;-147.14;100.00;58812.66;5049031;28;45408;-45
2024/02/15 09:52:35;;;;;;;;;9.33;7.00;;;;;-147.14;100.00;58812.66;5044302;28;45382;-46
2024/02/15 09:55:02;;;;;;;;;10.67;9.00;;;;;-147.14;100.00;58812.66;5058558;28;45437;-49
2024/02/15 09:57:29;;;;;;;;;10.67;9.67;;;;;-147.14;100.00;58812.66;5053807;28;46064;-46
2024/02/15 09:59:54;;;;;;;;;9.67;8.33;;;;;-147.14;100.00;58812.66;5046400;28;45362;-48
2024/02/15 10:02:21;;;;;;;;;8.67;7.67;;;;;-147.14;100.00;58812.66;5053881;28;45633;-45
2024/02/15 10:04:46;;;;;;;;;11.67;8.00;;;;;-147.14;100.00;58812.66;5030639;28;45635;-45
2024/02/15 10:07:13;;;;;;;;;7.00;7.00;;;;;-147.14;100.00;58812.66;5051553;28;59385;-45
2024/02/15 10:09:42;;;;;;;;;9.00;6.00;;;;;-147.14;100.00;58812.66;5040413;28;45365;-46
2024/02/15 10:12:09;;;;;;;;;10.00;8.00;;;;;-147.14;100.00;58812.66;5055423;28;45566;-46
2024/02/15 10:14:34;;;;;;;;;12.00;8.00;;;;;-147.14;100.00;58812.66;5046686;28;45445;-48
2024/02/15 10:17:09;;;;;;;;;7.33;7.33;;;;;-147.14;100.00;58812.66;5039394;28;45526;-47
2024/02/15 10:19:35;;;;;;;;;7.67;7.00;;;;;-147.14;100.00;58812.66;5047006;28;45597;-50
2024/02/15 10:22:06;;;;;;;;;7.67;6.67;;;;;-147.14;100.00;58812.66;5040445;28;45466;-46
2024/02/15 10:24:31;;;;;;;;;5.67;4.00;;;;;-147.14;100.00;58812.66;5051606;28;45225;-47
2024/02/15 10:27:04;;;;;;;;;5.50;5.00;;;;;-147.14;100.00;58812.66;5051417;28;74472;-46
2024/02/15 10:29:30;;;;;;;;;5.33;5.33;;;;;-147.14;100.00;58812.66;5049397;28;45305;-50
2024/02/15 10:31:58;;;;;;;;;6.67;6.67;;;;;-147.14;100.00;58812.66;5050236;28;45289;-47
2024/02/15 10:34:27;;;;;;;;;7.00;5.67;;;;;-147.14;100.00;58812.66;5050027;28;45331;-46
2024/02/15 10:36:56;;;;;;;;;8.33;8.33;;;;;-147.14;100.00;58812.66;5058720;28;46349;-46
2024/02/15 10:39:23;;;;;;;;;6.33;6.00;;;;;-147.14;100.00;58812.66;5024341;28;45342;-49
2024/02/15 10:41:48;;;;;;;;;7.67;7.00;;;;;-147.14;100.00;58812.66;5038981;28;45281;-49
2024/02/15 10:44:17;;;;;;;;;4.67;4.67;;;;;-147.14;100.00;58812.66;5049153;28;45225;-51
2024/02/15 10:46:44;;;;;;;;;7.00;5.00;;;;;-147.14;100.00;58812.66;5039537;28;46343;-48
2024/02/15 10:49:09;;;;;;;;;8.67;6.67;;;;;-147.14;100.00;58812.66;5051590;28;45390;-46
2024/02/15 10:51:36;;;;;;;;;12.00;8.00;;;;;-147.14;100.00;58812.66;5038586;28;64210;-45
2024/02/15 10:54:05;;;;;;;;;5.25;5.00;;;;;-147.14;100.00;58812.66;5039607;28;45403;-47
2024/02/15 10:56:37;;;;;;;;;9.67;7.00;;;;;-147.14;100.00;58812.66;5038277;28;45532;-44
2024/02/15 10:59:22;;;;;;;;;11.50;6.50;;;;;-147.14;100.00;58812.66;5023663;28;45343;-49
2024/02/15 11:01:52;;;;;;;;;12.50;9.00;;;;;-147.14;100.00;58812.66;5039162;28;45265;-51
2024/02/15 11:04:22;;;;;;;;;7.50;6.75;;;;;-147.14;100.00;58812.66;5044767;28;45502;-46
2024/02/15 11:06:50;;;;;;;;;5.50;5.50;;;;;-147.14;100.00;58812.66;5045562;28;46113;-51
2024/02/15 11:09:16;;;;;;;;;6.00;6.00;;;;;-147.14;100.00;58812.66;5027796;28;45590;-50
2024/02/15 11:11:41;;;;;;;;;6.50;6.00;;;;;-147.14;100.00;58812.66;5025652;28;69415;-49